createdAt,value
2018-02-25T00:02:21.744Z,102912.14
2018-02-25T00:04:47.671Z,102907.19
2018-02-25T00:07:13.570Z,102906.19
2018-02-25T00:09:39.467Z,102902.90
2018-02-25T00:12:05.400Z,102907.92
2018-02-25T00:14:31.283Z,102909.84
2018-02-25T00:16:57.166Z,102895.86
2018-02-25T00:19:23.098Z,102895.58
2018-02-25T00:21:49.010Z,102895.06
2018-02-25T00:24:14.894Z,102892.97
2018-02-25T00:26:40.806Z,102906.92
2018-02-25T00:29:06.672Z,102903.66
2018-02-25T00:31:32.565Z,102894.66
2018-02-25T00:33:58.484Z,102894.14
2018-02-25T00:36:24.344Z,102893.60
2018-02-25T00:38:50.227Z,102892.81
2018-02-25T00:41:16.163Z,102899.02
2018-02-25T00:43:42.935Z,102900.44
2018-02-25T00:46:08.821Z,102891.44
2018-02-25T00:48:34.840Z,102895.78
2018-02-25T00:51:00.734Z,102896.57
2018-02-25T00:53:26.631Z,102889.66
2018-02-25T00:55:52.645Z,102894.00
2018-02-25T00:58:18.526Z,102887.55
2018-02-25T01:00:44.426Z,102892.79
2018-02-25T01:03:10.353Z,102887.87
2018-02-25T01:05:36.233Z,102890.58
2018-02-25T01:08:02.103Z,102890.81
2018-02-25T01:10:28.022Z,102883.74
2018-02-25T01:12:53.911Z,102884.23
2018-02-25T01:15:19.800Z,102884.63
2018-02-25T01:17:45.731Z,102888.92
2018-02-25T01:20:11.614Z,102879.00
2018-02-25T01:22:37.486Z,102885.02
2018-02-25T01:25:03.431Z,102890.06
2018-02-25T01:27:29.307Z,102880.34
2018-02-25T01:29:55.185Z,102882.19
2018-02-25T01:32:21.112Z,102877.09
2018-02-25T01:34:46.994Z,102875.25
2018-02-25T01:37:12.865Z,102878.75
2018-02-25T01:39:38.782Z,102878.42
2018-02-25T01:42:04.654Z,102879.20
2018-02-25T01:44:30.600Z,102872.19
2018-02-25T01:46:56.527Z,102879.77
2018-02-25T01:49:22.422Z,102883.22
2018-02-25T01:51:48.327Z,102876.95
2018-02-25T01:54:14.255Z,102879.10
2018-02-25T01:56:40.138Z,102881.73
2018-02-25T01:59:06.002Z,102875.23
2018-02-25T02:01:31.941Z,102876.99
2018-02-25T02:03:57.822Z,102876.77
2018-02-25T02:06:23.714Z,102875.92
2018-02-25T02:08:49.655Z,102870.93
2018-02-25T02:11:15.555Z,102871.55
2018-02-25T02:13:41.447Z,102866.78
2018-02-25T02:16:07.377Z,102870.97
2018-02-25T02:18:33.325Z,102872.49
2018-02-25T02:20:59.214Z,102876.57
2018-02-25T02:23:25.152Z,102880.74
2018-02-25T02:25:51.030Z,102873.41
2018-02-25T02:28:16.906Z,102869.83
2018-02-25T02:30:42.826Z,102874.60
2018-02-25T02:33:08.705Z,102881.41
2018-02-25T02:35:34.616Z,102882.02
2018-02-25T02:38:00.529Z,102874.37
2018-02-25T02:40:26.402Z,102880.89
2018-02-25T02:42:52.279Z,102885.78
2018-02-25T02:45:18.261Z,102884.86
2018-02-25T02:47:44.667Z,102892.47
2018-02-25T02:50:10.596Z,102877.27
2018-02-25T02:52:36.895Z,102888.03
2018-02-25T02:55:02.801Z,102890.72
2018-02-25T02:57:28.713Z,102888.41
2018-02-25T02:59:54.638Z,102888.06
2018-02-25T03:02:20.522Z,102888.72
2018-02-25T03:04:46.431Z,102885.16
2018-02-25T03:07:12.362Z,102885.99
2018-02-25T03:09:38.253Z,102874.43
2018-02-25T03:12:04.143Z,102879.78
2018-02-25T03:14:30.074Z,102870.22
2018-02-25T03:16:55.966Z,102885.58
2018-02-25T03:19:21.859Z,102889.19
2018-02-25T03:21:47.790Z,102886.81
2018-02-25T03:24:13.675Z,102890.40
2018-02-25T03:26:39.549Z,102886.05
2018-02-25T03:29:05.509Z,102886.78
2018-02-25T03:31:31.401Z,102890.71
2018-02-25T03:33:57.301Z,102893.09
2018-02-25T03:36:23.551Z,102886.70
2018-02-25T03:38:49.438Z,102889.39
2018-02-25T03:41:15.303Z,102879.82
2018-02-25T03:43:41.241Z,102893.30
2018-02-25T03:46:07.269Z,102889.08
2018-02-25T03:48:33.142Z,102891.56
2018-02-25T03:50:59.082Z,102884.80
2018-02-25T03:53:24.958Z,102882.57
2018-02-25T03:55:50.827Z,102880.72
2018-02-25T03:58:16.854Z,102885.80
2018-02-25T04:00:42.743Z,102881.28
2018-02-25T04:03:08.613Z,102883.67
2018-02-25T04:05:34.554Z,102884.81
2018-02-25T04:08:00.470Z,102880.30
2018-02-25T04:10:26.451Z,102875.30
2018-02-25T04:12:52.374Z,102880.64
2018-02-25T04:15:18.278Z,102881.02
2018-02-25T04:17:44.183Z,102872.33
2018-02-25T04:20:10.101Z,102874.11
2018-02-25T04:22:36.082Z,102884.37
2018-02-25T04:25:01.962Z,102888.53
2018-02-25T04:27:27.886Z,102886.54
2018-02-25T04:29:53.778Z,102879.46
2018-02-25T04:32:19.641Z,102879.58
2018-02-25T04:34:45.682Z,102879.58
2018-02-25T04:37:11.654Z,102875.67
2018-02-25T04:39:37.575Z,102879.61
2018-02-25T04:42:03.510Z,102877.44
2018-02-25T04:44:29.405Z,102874.44
2018-02-25T04:46:55.391Z,102876.02
2018-02-25T04:49:21.363Z,102875.59
2018-02-25T04:51:47.264Z,102874.40
2018-02-25T04:54:13.137Z,102868.25
2018-02-25T04:56:39.072Z,102872.49
2018-02-25T04:59:05.063Z,102875.98
2018-02-25T05:01:30.952Z,102879.72
2018-02-25T05:03:57.048Z,102875.33
2018-02-25T05:06:22.944Z,102876.09
2018-02-25T05:08:48.843Z,102883.75
2018-02-25T05:11:14.874Z,102879.81
2018-02-25T05:13:40.874Z,102874.05
2018-02-25T05:16:06.865Z,102870.47
2018-02-25T05:18:32.802Z,102873.16
2018-02-25T05:20:58.678Z,102869.64
2018-02-25T05:23:24.654Z,102872.88
2018-02-25T05:25:51.054Z,102874.47
2018-02-25T05:28:16.977Z,102869.05
2018-02-25T05:30:42.860Z,102876.09
2018-02-25T05:33:08.790Z,102868.95
2018-02-25T05:35:34.862Z,102880.84
2018-02-25T05:38:00.750Z,102880.67
2018-02-25T05:40:26.694Z,102874.95
2018-02-25T05:42:52.590Z,102883.30
2018-02-25T05:45:18.489Z,102888.42
2018-02-25T05:47:44.790Z,102888.73
2018-02-25T05:50:10.681Z,102893.72
2018-02-25T05:52:36.567Z,102891.66
2018-02-25T05:55:02.499Z,102896.09
2018-02-25T05:57:28.379Z,102896.95
2018-02-25T05:59:54.390Z,102904.19
2018-02-25T06:02:20.876Z,102904.56
2018-02-25T06:04:47.234Z,102906.53
2018-02-25T06:07:13.159Z,102902.20
2018-02-25T06:09:39.123Z,102909.45
2018-02-25T06:12:05.175Z,102910.05
2018-02-25T06:14:31.069Z,102914.80
2018-02-25T06:16:57.009Z,102911.60
2018-02-25T06:19:22.869Z,102916.48
2018-02-25T06:21:48.749Z,102908.19
2018-02-25T06:24:14.776Z,102917.33
2018-02-25T06:26:40.742Z,102916.88
2018-02-25T06:29:06.669Z,102910.13
2018-02-25T06:31:32.633Z,102913.52
2018-02-25T06:33:58.542Z,102914.35
2018-02-25T06:36:24.522Z,102907.80
2018-02-25T06:38:50.461Z,102910.11
2018-02-25T06:41:16.342Z,102922.22
2018-02-25T06:43:42.220Z,102922.28
2018-02-25T06:46:08.133Z,102910.16
2018-02-25T06:48:34.194Z,102914.70
2018-02-25T06:51:00.082Z,102913.90
2018-02-25T06:53:26.116Z,102907.12
2018-02-25T06:55:52.006Z,102906.69
2018-02-25T06:58:17.901Z,102915.35
2018-02-25T07:00:43.966Z,102909.66
2018-02-25T07:03:09.873Z,102901.91
2018-02-25T07:05:35.749Z,102903.87
2018-02-25T07:08:01.717Z,102908.30
2018-02-25T07:10:27.558Z,102905.67
2018-02-25T07:12:53.544Z,102909.22
2018-02-25T07:15:20.768Z,102896.76
2018-02-25T07:17:46.676Z,102905.72
2018-02-25T07:20:12.590Z,102897.14
2018-02-25T07:22:38.538Z,102910.71
2018-02-25T07:25:04.589Z,102913.77
2018-02-25T07:27:30.502Z,102910.02
2018-02-25T07:29:56.426Z,102906.15
2018-02-25T07:32:22.337Z,102917.14
2018-02-25T07:34:48.232Z,102910.94
2018-02-25T07:37:14.290Z,102909.02
2018-02-25T07:39:40.144Z,102909.30
2018-02-25T07:42:06.047Z,102911.96
2018-02-25T07:44:31.986Z,102915.72
2018-02-25T07:46:57.853Z,102917.23
2018-02-25T07:49:23.809Z,102912.72
2018-02-25T07:51:49.743Z,102907.61
2018-02-25T07:54:15.716Z,102906.05
2018-02-25T07:56:41.602Z,102918.13
2018-02-25T07:59:07.505Z,102915.92
2018-02-25T08:01:33.508Z,102913.52
2018-02-25T08:03:59.436Z,102913.98
2018-02-25T08:06:25.319Z,102915.83
2018-02-25T08:08:51.186Z,102919.39
2018-02-25T08:11:17.053Z,102914.43
2018-02-25T08:13:43.065Z,102906.38
2018-02-25T08:16:09.006Z,102910.77
2018-02-25T08:18:34.913Z,102899.92
2018-02-25T08:21:00.814Z,102902.41
2018-02-25T08:23:26.715Z,102897.86
2018-02-25T08:25:52.654Z,102910.02
2018-02-25T08:28:18.646Z,102905.67
2018-02-25T08:30:44.523Z,102907.27
2018-02-25T08:33:10.382Z,102913.08
2018-02-25T08:35:36.299Z,102906.44
2018-02-25T08:38:02.246Z,102912.89
2018-02-25T08:40:28.165Z,102902.70
2018-02-25T08:42:54.073Z,102902.98
2018-02-25T08:45:19.937Z,102902.25
2018-02-25T08:47:45.802Z,102907.19
2018-02-25T08:50:11.913Z,102909.77
2018-02-25T08:52:37.814Z,102909.98
2018-02-25T08:55:03.686Z,102903.15
2018-02-25T08:57:29.596Z,102904.56
2018-02-25T08:59:55.472Z,102896.36
2018-02-25T09:02:21.465Z,102899.47
2018-02-25T09:04:47.428Z,102898.94
2018-02-25T09:07:13.411Z,102903.54
2018-02-25T09:09:39.286Z,102891.20
2018-02-25T09:12:05.204Z,102894.67
2018-02-25T09:14:31.175Z,102894.94
2018-02-25T09:16:57.095Z,102892.56
2018-02-25T09:19:23.001Z,102893.38
2018-02-25T09:21:48.952Z,102899.94
2018-02-25T09:24:14.800Z,102898.84
2018-02-25T09:26:41.345Z,102899.95
2018-02-25T09:29:07.281Z,102900.80
2018-02-25T09:31:33.212Z,102901.73
2018-02-25T09:33:59.205Z,102893.84
2018-02-25T09:36:25.074Z,102894.78
2018-02-25T09:38:51.023Z,102889.95
2018-02-25T09:41:16.999Z,102883.67
2018-02-25T09:43:42.894Z,102882.64
2018-02-25T09:46:08.751Z,102888.52
2018-02-25T09:48:34.681Z,102883.36
2018-02-25T09:51:00.646Z,102874.95
2018-02-25T09:53:26.574Z,102869.48
2018-02-25T09:55:52.493Z,102869.95
2018-02-25T09:58:18.373Z,102871.91
2018-02-25T10:00:44.314Z,102870.87
2018-02-25T10:03:10.310Z,102850.59
2018-02-25T10:05:36.237Z,102861.67
2018-02-25T10:08:02.113Z,102861.13
2018-02-25T10:10:28.050Z,102843.82
2018-02-25T10:12:53.913Z,102844.46
2018-02-25T10:15:19.856Z,102842.65
2018-02-25T10:17:45.890Z,102843.84
2018-02-25T10:20:11.753Z,102836.57
2018-02-25T10:22:37.641Z,102831.66
2018-02-25T10:25:03.563Z,102839.45
2018-02-25T10:27:29.515Z,102830.58
2018-02-25T10:29:55.438Z,102826.76
2018-02-25T10:32:21.355Z,102821.42
2018-02-25T10:34:47.234Z,102818.77
2018-02-25T10:37:13.103Z,102821.36
2018-02-25T10:39:39.115Z,102813.06
2018-02-25T10:42:05.029Z,102810.03
2018-02-25T10:44:30.890Z,102814.20
2018-02-25T10:46:56.797Z,102807.62
2018-02-25T10:49:22.668Z,102810.49
2018-02-25T10:51:48.646Z,102797.65
2018-02-25T10:54:14.718Z,102798.37
2018-02-25T10:56:41.153Z,102788.82
2018-02-25T10:59:07.066Z,102783.36
2018-02-25T11:01:32.963Z,102791.42
2018-02-25T11:03:58.929Z,102786.53
2018-02-25T11:06:24.858Z,102781.38
2018-02-25T11:08:50.774Z,102780.97
2018-02-25T11:11:16.650Z,102769.03
2018-02-25T11:13:42.508Z,102764.41
2018-02-25T11:16:08.510Z,102770.60
2018-02-25T11:18:34.436Z,102770.33
2018-02-25T11:21:00.553Z,102767.55
2018-02-25T11:23:26.475Z,102758.91
2018-02-25T11:25:52.338Z,102764.51
2018-02-25T11:28:18.280Z,102756.14
2018-02-25T11:30:44.267Z,102756.72
2018-02-25T11:33:10.155Z,102748.55
2018-02-25T11:35:36.020Z,102741.71
2018-02-25T11:38:01.937Z,102739.24
2018-02-25T11:40:28.006Z,102741.13
2018-02-25T11:42:53.934Z,102732.77
2018-02-25T11:45:19.842Z,102734.03
2018-02-25T11:47:45.706Z,102726.30
2018-02-25T11:50:11.570Z,102726.09
2018-02-25T11:52:37.620Z,102729.61
2018-02-25T11:55:03.546Z,102722.27
2018-02-25T11:57:29.425Z,102731.17
2018-02-25T11:59:55.332Z,102717.42
2018-02-25T12:02:21.206Z,102717.91
2018-02-25T12:04:47.179Z,102711.88
2018-02-25T12:07:13.573Z,102710.58
2018-02-25T12:09:39.449Z,102718.34
2018-02-25T12:12:05.334Z,102711.80
2018-02-25T12:14:31.238Z,102707.50
2018-02-25T12:16:57.212Z,102707.11
2018-02-25T12:19:23.129Z,102706.69
2018-02-25T12:21:49.032Z,102701.97
2018-02-25T12:24:15.069Z,102706.88
2018-02-25T12:26:40.949Z,102704.07
2018-02-25T12:29:06.986Z,102702.19
2018-02-25T12:31:32.937Z,102703.75
2018-02-25T12:33:58.800Z,102696.26
2018-02-25T12:36:24.726Z,102693.89
2018-02-25T12:38:50.602Z,102701.10
2018-02-25T12:41:16.576Z,102693.09
2018-02-25T12:43:42.530Z,102694.84
2018-02-25T12:46:08.389Z,102690.28
2018-02-25T12:48:34.273Z,102691.95
2018-02-25T12:51:00.219Z,102686.31
2018-02-25T12:53:26.165Z,102680.86
2018-02-25T12:55:52.104Z,102675.91
2018-02-25T12:58:18.018Z,102675.33
2018-02-25T13:00:43.874Z,102674.00
2018-02-25T13:03:09.762Z,102674.52
2018-02-25T13:05:36.163Z,102671.41
2018-02-25T13:08:02.082Z,102668.38
2018-02-25T13:10:28.288Z,102675.30
2018-02-25T13:12:54.209Z,102665.02
2018-02-25T13:15:20.079Z,102661.70
2018-02-25T13:17:46.054Z,102662.98
2018-02-25T13:20:12.050Z,102652.88
2018-02-25T13:22:37.930Z,102658.49
2018-02-25T13:25:03.940Z,102657.56
2018-02-25T13:27:29.850Z,102656.55
2018-02-25T13:29:55.897Z,102653.73
2018-02-25T13:32:21.806Z,102645.01
2018-02-25T13:34:47.732Z,102651.55
2018-02-25T13:37:13.667Z,102652.67
2018-02-25T13:39:39.543Z,102652.44
2018-02-25T13:42:05.581Z,102653.20
2018-02-25T13:44:31.518Z,102651.61
2018-02-25T13:46:57.406Z,102648.98
2018-02-25T13:49:23.338Z,102645.14
2018-02-25T13:51:49.211Z,102644.61
2018-02-25T13:54:15.191Z,102638.24
2018-02-25T13:56:41.170Z,102642.64
2018-02-25T13:59:07.038Z,102634.88
2018-02-25T14:01:32.891Z,102636.36
2018-02-25T14:03:59.170Z,102629.66
2018-02-25T14:06:25.159Z,102636.27
2018-02-25T14:08:51.114Z,102627.70
2018-02-25T14:11:17.017Z,102630.44
2018-02-25T14:13:42.881Z,102627.55
2018-02-25T14:16:08.742Z,102612.27
2018-02-25T14:18:34.737Z,102625.77
2018-02-25T14:21:00.672Z,102629.67
2018-02-25T14:23:26.544Z,102637.66
2018-02-25T14:25:52.461Z,102629.06
2018-02-25T14:28:18.320Z,102629.47
2018-02-25T14:30:44.299Z,102626.61
2018-02-25T14:33:10.294Z,102620.29
2018-02-25T14:35:36.166Z,102622.64
2018-02-25T14:38:02.045Z,102623.44
2018-02-25T14:40:27.946Z,102620.23
2018-02-25T14:42:53.894Z,102613.79
2018-02-25T14:45:19.792Z,102621.48
2018-02-25T14:47:45.706Z,102618.69
2018-02-25T14:50:11.570Z,102611.88
2018-02-25T14:52:37.437Z,102610.09
2018-02-25T14:55:03.424Z,102612.01
2018-02-25T14:57:29.354Z,102605.36
2018-02-25T14:59:55.221Z,102608.98
2018-02-25T15:02:21.195Z,102607.95
2018-02-25T15:04:47.075Z,102600.55
2018-02-25T15:07:13.037Z,102606.30
2018-02-25T15:09:38.997Z,102599.63
2018-02-25T15:12:04.860Z,102606.57
2018-02-25T15:14:30.954Z,102607.24
2018-02-25T15:16:56.888Z,102600.64
2018-02-25T15:19:22.830Z,102600.65
2018-02-25T15:21:48.748Z,102606.43
2018-02-25T15:24:14.644Z,102604.84
2018-02-25T15:26:40.496Z,102600.22
2018-02-25T15:29:06.385Z,102602.41
2018-02-25T15:31:32.389Z,102610.53
2018-02-25T15:33:58.315Z,102599.64
2018-02-25T15:36:24.262Z,102602.55
2018-02-25T15:38:50.466Z,102603.30
2018-02-25T15:41:16.337Z,102602.67
2018-02-25T15:43:42.307Z,102603.41
2018-02-25T15:46:08.278Z,102600.29
2018-02-25T15:48:34.242Z,102605.87
2018-02-25T15:51:00.104Z,102604.09
2018-02-25T15:53:26.000Z,102604.78
2018-02-25T15:55:51.945Z,102608.91
2018-02-25T15:58:17.870Z,102607.97
2018-02-25T16:00:43.798Z,102606.70
2018-02-25T16:03:09.656Z,102610.73
2018-02-25T16:05:35.572Z,102613.00
2018-02-25T16:08:01.517Z,102610.88
2018-02-25T16:10:27.436Z,102613.00
2018-02-25T16:12:53.294Z,102614.95
2018-02-25T16:15:19.218Z,102614.54
2018-02-25T16:17:45.145Z,102602.58
2018-02-25T16:20:11.065Z,102611.02
2018-02-25T16:22:37.024Z,102610.17
2018-02-25T16:25:02.900Z,102604.78
2018-02-25T16:27:28.765Z,102607.95
2018-02-25T16:29:54.737Z,102610.23
2018-02-25T16:32:20.702Z,102613.22
2018-02-25T16:34:46.617Z,102610.73
2018-02-25T16:37:12.530Z,102610.95
2018-02-25T16:39:38.454Z,102608.91
2018-02-25T16:42:04.397Z,102617.73
2018-02-25T16:44:30.493Z,102617.82
2018-02-25T16:46:56.544Z,102623.11
2018-02-25T16:49:22.788Z,102617.22
2018-02-25T16:51:48.768Z,102622.56
2018-02-25T16:54:14.802Z,102623.85
2018-02-25T16:56:40.751Z,102615.43
2018-02-25T16:59:06.742Z,102620.73
2018-02-25T17:01:32.654Z,102618.64
2018-02-25T17:03:58.718Z,102626.87
2018-02-25T17:06:24.857Z,102630.52
2018-02-25T17:08:50.964Z,102623.03
2018-02-25T17:11:16.913Z,102624.69
2018-02-25T17:13:42.846Z,102630.41
2018-02-25T17:16:08.728Z,102634.91
2018-02-25T17:18:34.785Z,102634.23
2018-02-25T17:21:00.706Z,102637.09
2018-02-25T17:23:26.643Z,102635.59
2018-02-25T17:25:52.531Z,102629.64
2018-02-25T17:28:18.765Z,102637.38
2018-02-25T17:30:44.654Z,102636.25
2018-02-25T17:33:10.574Z,102643.37
2018-02-25T17:35:36.634Z,102640.52
2018-02-25T17:38:02.527Z,102642.36
2018-02-25T17:40:28.406Z,102640.09
2018-02-25T17:42:54.322Z,102638.22
2018-02-25T17:45:21.142Z,102639.19
2018-02-25T17:47:47.088Z,102642.19
2018-02-25T17:50:13.077Z,102639.71
2018-02-25T17:52:38.949Z,102647.02
2018-02-25T17:55:04.827Z,102648.85
2018-02-25T17:57:30.762Z,102649.07
2018-02-25T17:59:56.706Z,102639.77
2018-02-25T18:02:22.708Z,102647.21
2018-02-25T18:04:48.614Z,102640.72
2018-02-25T18:07:14.474Z,102642.97
2018-02-25T18:09:41.267Z,102645.62
2018-02-25T18:12:07.232Z,102639.19
2018-02-25T18:14:33.202Z,102635.11
2018-02-25T18:16:59.270Z,102637.20
2018-02-25T18:19:25.161Z,102627.14
2018-02-25T18:21:51.020Z,102635.48
2018-02-25T18:24:16.938Z,102641.00
2018-02-25T18:26:42.926Z,102638.75
2018-02-25T18:29:08.798Z,102633.41
2018-02-25T18:31:34.684Z,102637.19
2018-02-25T18:34:00.605Z,102640.58
2018-02-25T18:36:26.550Z,102636.05
2018-02-25T18:38:52.489Z,102632.21
2018-02-25T18:41:18.434Z,102643.59
2018-02-25T18:43:44.555Z,102644.70
2018-02-25T18:46:10.426Z,102645.78
2018-02-25T18:48:36.457Z,102644.73
2018-02-25T18:51:02.403Z,102643.55
2018-02-25T18:53:28.270Z,102643.09
2018-02-25T18:55:54.224Z,102642.95
2018-02-25T18:58:20.228Z,102655.06
2018-02-25T19:00:46.202Z,102652.88
2018-02-25T19:03:12.643Z,102651.64
2018-02-25T19:05:38.607Z,102654.59
2018-02-25T19:08:04.533Z,102655.38
2018-02-25T19:10:30.518Z,102652.72
2018-02-25T19:12:56.537Z,102655.95
2018-02-25T19:15:22.526Z,102657.05
2018-02-25T19:17:48.529Z,102655.55
2018-02-25T19:20:14.612Z,102657.69
2018-02-25T19:22:40.949Z,102661.52
2018-02-25T19:25:06.888Z,102662.02
2018-02-25T19:27:33.260Z,102663.06
2018-02-25T19:29:59.143Z,102665.34
2018-02-25T19:32:25.110Z,102662.22
2018-02-25T19:34:51.095Z,102667.72
2018-02-25T19:40:27.198Z,102659.08
2018-02-25T19:42:53.260Z,102670.16
2018-02-25T19:45:19.137Z,102662.63
2018-02-25T19:47:45.060Z,102665.66
2018-02-25T19:50:10.997Z,102663.30
2018-02-25T19:52:36.892Z,102659.38
2018-02-25T19:55:02.909Z,102664.63
2018-02-25T19:57:28.868Z,102661.06
2018-02-25T19:59:54.918Z,102666.09
2018-02-25T20:02:20.810Z,102663.25
2018-02-25T20:04:46.744Z,102664.73
2018-02-25T20:07:12.763Z,102667.45
2018-02-25T20:09:38.693Z,102662.59
2018-02-25T20:12:04.856Z,102664.17
2018-02-25T20:14:30.827Z,102656.42
2018-02-25T20:16:56.839Z,102656.44
2018-02-25T20:19:22.769Z,102658.41
2018-02-25T20:21:48.670Z,102664.20
2018-02-25T20:24:15.099Z,102664.47
2018-02-25T20:26:41.107Z,102654.94
2018-02-25T20:29:07.317Z,102653.33
2018-02-25T20:31:33.266Z,102649.98
2018-02-25T20:33:59.244Z,102655.69
2018-02-25T20:36:25.648Z,102652.13
2018-02-25T20:38:51.562Z,102655.05
2018-02-25T20:41:17.918Z,102651.11
2018-02-25T20:43:44.064Z,102654.38
2018-02-25T20:46:10.005Z,102646.47
2018-02-25T20:48:36.405Z,102654.42
2018-02-25T20:51:02.299Z,102649.52
2018-02-25T20:53:28.250Z,102652.45
2018-02-25T20:55:54.171Z,102652.00
2018-02-25T20:58:20.062Z,102652.08
2018-02-25T21:00:46.312Z,102654.31
2018-02-25T21:03:12.263Z,102661.76
2018-02-25T21:05:38.250Z,102657.56
2018-02-25T21:08:04.203Z,102650.14
2018-02-25T21:10:30.436Z,102656.13
2018-02-25T21:12:56.611Z,102661.27
2018-02-25T21:15:22.525Z,102654.38
2018-02-25T21:17:48.540Z,102647.63
2018-02-25T21:20:14.420Z,102652.73
2018-02-25T21:22:40.281Z,102651.83
2018-02-25T21:25:06.632Z,102657.97
2018-02-25T21:27:32.571Z,102657.02
2018-02-25T21:29:58.572Z,102656.02
2018-02-25T21:32:24.510Z,102661.48
2018-02-25T21:34:50.483Z,102659.06
2018-02-25T21:37:16.379Z,102669.31
2018-02-25T21:39:42.299Z,102672.86
2018-02-25T21:42:08.392Z,102668.95
2018-02-25T21:44:34.314Z,102669.91
2018-02-25T21:47:00.520Z,102664.48
2018-02-25T21:49:26.394Z,102663.38
2018-02-25T21:51:52.293Z,102665.81
2018-02-25T21:54:25.248Z,102669.56
2018-02-25T21:56:57.096Z,102673.23
2018-02-25T21:59:29.391Z,102679.84
2018-02-25T22:02:01.293Z,102668.03
2018-02-25T22:04:27.250Z,102668.17
2018-02-25T22:06:53.213Z,102671.60
2018-02-25T22:09:19.930Z,102664.08
2018-02-25T22:11:45.797Z,102664.77
2018-02-25T22:14:11.714Z,102654.15
2018-02-25T22:16:37.656Z,102650.20
2018-02-25T22:19:03.546Z,102646.55
2018-02-25T22:21:29.466Z,102645.94
2018-02-25T22:23:55.359Z,102638.01
2018-02-25T22:26:21.229Z,102651.27
2018-02-25T22:28:47.257Z,102642.65
2018-02-25T22:31:13.154Z,102646.92
2018-02-25T22:33:39.009Z,102646.28
2018-02-25T22:36:04.926Z,102649.41
2018-02-25T22:38:30.788Z,102648.98
2018-02-25T22:40:56.750Z,102640.80
2018-02-25T22:43:22.993Z,102646.38
2018-02-25T22:45:48.888Z,102647.85
2018-02-25T22:48:14.774Z,102647.60
2018-02-25T22:50:40.710Z,102650.50
2018-02-25T22:53:06.695Z,102645.53
2018-02-25T22:55:32.579Z,102644.95
2018-02-25T22:57:58.497Z,102653.92
2018-02-25T23:00:24.382Z,102653.13
2018-02-25T23:02:50.244Z,102658.08
2018-02-25T23:05:16.280Z,102662.12
2018-02-25T23:07:42.162Z,102666.39
2018-02-25T23:10:08.051Z,102662.73
2018-02-25T23:12:33.948Z,102653.87
2018-02-25T23:14:59.810Z,102655.81
2018-02-25T23:17:25.779Z,102661.25
2018-02-25T23:19:52.390Z,102657.71
2018-02-25T23:22:18.260Z,102664.15
2018-02-25T23:24:44.146Z,102664.26
2018-02-25T23:27:10.053Z,102666.99
2018-02-25T23:29:36.007Z,102663.59
2018-02-25T23:32:01.910Z,102667.37
2018-02-25T23:34:27.828Z,102658.28
2018-02-25T23:36:53.726Z,102657.45
2018-02-25T23:39:19.587Z,102662.45
2018-02-25T23:41:45.573Z,102659.90
2018-02-25T23:44:11.481Z,102661.50
2018-02-25T23:46:37.344Z,102668.22
2018-02-25T23:49:03.548Z,102661.16
2018-02-25T23:51:29.422Z,102653.26
2018-02-25T23:53:55.400Z,102653.13
2018-02-25T23:56:21.402Z,102663.42
2018-02-25T23:58:47.276Z,102657.81
